sensor_id;sensor_type;location;lat;lon;timestamp;pressure;altitude;pressure_sealevel;temperature;humidity
75420;BME280;63998;52.488;13.428;2023-07-24T00:00:49;100107.97;;;20.01;56.72
75420;BME280;63998;52.488;13.428;2023-07-24T00:03:15;100104.22;;;20.05;56.59
75420;BME280;63998;52.488;13.428;2023-07-24T00:05:40;100099.66;;;20.08;56.31
75420;BME280;63998;52.488;13.428;2023-07-24T00:08:05;100101.66;;;20.03;56.21
75420;BME280;63998;52.488;13.428;2023-07-24T00:10:32;100101.44;;;20.08;56.29
75420;BME280;63998;52.488;13.428;2023-07-24T00:12:57;100100.53;;;20.09;56.03
75420;BME280;63998;52.488;13.428;2023-07-24T00:15:22;100098.59;;;20.13;55.94
75420;BME280;63998;52.488;13.428;2023-07-24T00:17:48;100103.66;;;20.17;55.77
75420;BME280;63998;52.488;13.428;2023-07-24T00:20:13;100094.03;;;20.16;55.79
75420;BME280;63998;52.488;13.428;2023-07-24T00:22:38;100095.13;;;20.12;55.64
75420;BME280;63998;52.488;13.428;2023-07-24T00:25:04;100086.69;;;20.04;55.80
75420;BME280;63998;52.488;13.428;2023-07-24T00:27:31;100087.41;;;20.07;55.58
75420;BME280;63998;52.488;13.428;2023-07-24T00:29:56;100091.69;;;20.10;55.68
75420;BME280;63998;52.488;13.428;2023-07-24T00:32:21;100083.63;;;20.13;55.56
75420;BME280;63998;52.488;13.428;2023-07-24T00:34:47;100086.34;;;20.12;55.36
75420;BME280;63998;52.488;13.428;2023-07-24T00:37:12;100074.28;;;20.06;55.27
75420;BME280;63998;52.488;13.428;2023-07-24T00:39:37;100078.44;;;20.12;55.28
75420;BME280;63998;52.488;13.428;2023-07-24T00:42:03;100067.03;;;20.11;55.24
75420;BME280;63998;52.488;13.428;2023-07-24T00:44:28;100067.16;;;20.08;55.11
75420;BME280;63998;52.488;13.428;2023-07-24T00:46:54;100066.38;;;20.06;55.14
75420;BME280;63998;52.488;13.428;2023-07-24T00:49:19;100071.59;;;20.07;55.01
75420;BME280;63998;52.488;13.428;2023-07-24T00:51:46;100075.88;;;20.10;54.86
75420;BME280;63998;52.488;13.428;2023-07-24T00:54:12;100068.09;;;20.07;55.15
75420;BME280;63998;52.488;13.428;2023-07-24T00:56:40;100061.91;;;20.08;55.12
75420;BME280;63998;52.488;13.428;2023-07-24T00:59:05;100060.19;;;20.07;55.25
75420;BME280;63998;52.488;13.428;2023-07-24T01:01:31;100054.97;;;20.05;55.41
75420;BME280;63998;52.488;13.428;2023-07-24T01:03:57;100049.78;;;20.04;55.07
75420;BME280;63998;52.488;13.428;2023-07-24T01:06:23;100051.81;;;19.99;55.97
75420;BME280;63998;52.488;13.428;2023-07-24T01:08:48;100053.66;;;19.97;55.72
75420;BME280;63998;52.488;13.428;2023-07-24T01:14:04;100040.84;;;19.89;56.22
75420;BME280;63998;52.488;13.428;2023-07-24T01:16:37;100031.16;;;19.90;56.35
75420;BME280;63998;52.488;13.428;2023-07-24T01:19:05;100037.50;;;19.86;56.38
75420;BME280;63998;52.488;13.428;2023-07-24T01:21:44;100034.00;;;19.85;56.43
75420;BME280;63998;52.488;13.428;2023-07-24T01:24:52;100028.88;;;19.82;56.82
75420;BME280;63998;52.488;13.428;2023-07-24T01:27:24;100022.97;;;19.77;56.98
75420;BME280;63998;52.488;13.428;2023-07-24T01:29:50;100026.47;;;19.78;57.14
75420;BME280;63998;52.488;13.428;2023-07-24T01:32:16;100035.31;;;19.77;57.24
75420;BME280;63998;52.488;13.428;2023-07-24T01:34:42;100034.28;;;19.79;57.20
75420;BME280;63998;52.488;13.428;2023-07-24T01:37:08;100034.13;;;19.82;57.33
75420;BME280;63998;52.488;13.428;2023-07-24T01:39:35;100031.22;;;19.88;57.24
75420;BME280;63998;52.488;13.428;2023-07-24T01:42:00;100029.44;;;19.89;57.17
75420;BME280;63998;52.488;13.428;2023-07-24T01:44:26;100026.75;;;19.90;57.10
75420;BME280;63998;52.488;13.428;2023-07-24T01:46:52;100024.44;;;19.83;57.33
75420;BME280;63998;52.488;13.428;2023-07-24T01:49:17;100025.63;;;19.77;57.56
75420;BME280;63998;52.488;13.428;2023-07-24T01:51:42;100026.75;;;19.71;57.92
75420;BME280;63998;52.488;13.428;2023-07-24T01:54:07;100024.19;;;19.70;57.47
75420;BME280;63998;52.488;13.428;2023-07-24T01:56:35;100024.41;;;19.65;57.41
75420;BME280;63998;52.488;13.428;2023-07-24T01:59:01;100020.75;;;19.68;57.27
75420;BME280;63998;52.488;13.428;2023-07-24T02:01:26;100016.34;;;19.68;57.00
75420;BME280;63998;52.488;13.428;2023-07-24T02:03:51;100013.69;;;19.68;57.12
75420;BME280;63998;52.488;13.428;2023-07-24T02:06:17;100014.50;;;19.70;56.96
75420;BME280;63998;52.488;13.428;2023-07-24T02:08:42;100010.78;;;19.75;56.85
75420;BME280;63998;52.488;13.428;2023-07-24T02:11:13;100010.66;;;19.78;56.87
75420;BME280;63998;52.488;13.428;2023-07-24T02:13:39;100001.97;;;19.76;56.81
75420;BME280;63998;52.488;13.428;2023-07-24T02:16:04;100007.38;;;19.72;56.82
75420;BME280;63998;52.488;13.428;2023-07-24T02:18:29;100007.38;;;19.72;56.91
75420;BME280;63998;52.488;13.428;2023-07-24T02:20:55;100008.38;;;19.70;56.89
75420;BME280;63998;52.488;13.428;2023-07-24T02:23:20;100010.66;;;19.78;56.97
75420;BME280;63998;52.488;13.428;2023-07-24T02:25:45;100005.38;;;19.78;57.04
75420;BME280;63998;52.488;13.428;2023-07-24T02:28:11;100001.66;;;19.82;57.01
75420;BME280;63998;52.488;13.428;2023-07-24T02:30:39;100000.13;;;19.78;57.27
75420;BME280;63998;52.488;13.428;2023-07-24T02:33:05;99994.13;;;19.74;57.51
75420;BME280;63998;52.488;13.428;2023-07-24T02:35:30;100000.25;;;19.75;57.96
75420;BME280;63998;52.488;13.428;2023-07-24T02:37:56;100002.09;;;19.72;58.15
75420;BME280;63998;52.488;13.428;2023-07-24T02:40:21;99995.25;;;19.68;58.42
75420;BME280;63998;52.488;13.428;2023-07-24T02:42:46;100005.97;;;19.65;58.87
75420;BME280;63998;52.488;13.428;2023-07-24T02:45:11;100002.53;;;19.63;59.12
75420;BME280;63998;52.488;13.428;2023-07-24T02:47:37;100014.78;;;19.64;59.22
75420;BME280;63998;52.488;13.428;2023-07-24T02:50:03;100015.56;;;19.66;59.39
75420;BME280;63998;52.488;13.428;2023-07-24T02:52:28;100024.19;;;19.70;59.25
75420;BME280;63998;52.488;13.428;2023-07-24T02:54:54;100021.47;;;19.71;59.65
75420;BME280;63998;52.488;13.428;2023-07-24T02:57:20;100021.47;;;19.71;59.61
75420;BME280;63998;52.488;13.428;2023-07-24T02:59:45;100025.09;;;19.69;60.04
75420;BME280;63998;52.488;13.428;2023-07-24T03:02:10;100030.31;;;19.70;60.37
75420;BME280;63998;52.488;13.428;2023-07-24T03:04:36;100026.75;;;19.71;59.95
75420;BME280;63998;52.488;13.428;2023-07-24T03:07:01;100032.16;;;19.68;60.64
75420;BME280;63998;52.488;13.428;2023-07-24T03:09:26;100032.16;;;19.68;61.01
75420;BME280;63998;52.488;13.428;2023-07-24T03:11:52;100033.84;;;19.69;61.10
75420;BME280;63998;52.488;13.428;2023-07-24T03:14:17;100032.16;;;19.68;61.22
75420;BME280;63998;52.488;13.428;2023-07-24T03:16:42;100034.00;;;19.66;61.28
75420;BME280;63998;52.488;13.428;2023-07-24T03:19:08;100032.59;;;19.59;61.80
75420;BME280;63998;52.488;13.428;2023-07-24T03:21:33;100026.19;;;19.65;61.51
75420;BME280;63998;52.488;13.428;2023-07-24T03:23:58;100034.00;;;19.66;61.72
75420;BME280;63998;52.488;13.428;2023-07-24T03:26:23;100035.72;;;19.67;61.61
75420;BME280;63998;52.488;13.428;2023-07-24T03:28:49;100039.13;;;19.69;61.82
75420;BME280;63998;52.488;13.428;2023-07-24T03:31:14;100033.44;;;19.60;62.49
75420;BME280;63998;52.488;13.428;2023-07-24T03:33:39;100034.28;;;19.60;62.33
75420;BME280;63998;52.488;13.428;2023-07-24T03:36:05;100034.16;;;19.63;62.37
75420;BME280;63998;52.488;13.428;2023-07-24T03:38:30;100030.59;;;19.64;62.41
75420;BME280;63998;52.488;13.428;2023-07-24T03:40:55;100026.03;;;19.68;62.49
75420;BME280;63998;52.488;13.428;2023-07-24T03:43:21;100028.91;;;19.63;63.27
75420;BME280;63998;52.488;13.428;2023-07-24T03:45:46;100034.28;;;19.60;63.26
75420;BME280;63998;52.488;13.428;2023-07-24T03:48:11;100029.03;;;19.60;63.53
75420;BME280;63998;52.488;13.428;2023-07-24T03:50:37;100033.38;;;19.61;63.66
75420;BME280;63998;52.488;13.428;2023-07-24T03:53:02;100037.84;;;19.59;63.98
75420;BME280;63998;52.488;13.428;2023-07-24T03:55:27;100044.97;;;19.57;64.21
75420;BME280;63998;52.488;13.428;2023-07-24T03:57:52;100039.56;;;19.60;64.10
75420;BME280;63998;52.488;13.428;2023-07-24T04:00:18;100044.97;;;19.57;64.41
75420;BME280;63998;52.488;13.428;2023-07-24T04:02:44;100041.00;;;19.49;66.22
75420;BME280;63998;52.488;13.428;2023-07-24T04:05:09;100053.03;;;19.34;67.89
75420;BME280;63998;52.488;13.428;2023-07-24T04:07:34;100049.91;;;19.26;68.35
75420;BME280;63998;52.488;13.428;2023-07-24T04:10:00;100045.03;;;19.17;69.34
75420;BME280;63998;52.488;13.428;2023-07-24T04:12:28;100042.75;;;19.09;69.71
75420;BME280;63998;52.488;13.428;2023-07-24T04:14:54;100042.69;;;19.11;69.79
75420;BME280;63998;52.488;13.428;2023-07-24T04:17:19;100031.94;;;19.15;69.48
75420;BME280;63998;52.488;13.428;2023-07-24T04:19:44;100034.22;;;19.23;69.62
75420;BME280;63998;52.488;13.428;2023-07-24T04:22:10;100031.72;;;19.20;69.85
75420;BME280;63998;52.488;13.428;2023-07-24T04:24:35;100028.13;;;19.22;69.49
75420;BME280;63998;52.488;13.428;2023-07-24T04:27:00;100030.63;;;19.25;69.21
75420;BME280;63998;52.488;13.428;2023-07-24T04:29:26;100031.31;;;19.29;69.35
75420;BME280;63998;52.488;13.428;2023-07-24T04:31:51;100034.09;;;19.26;69.20
75420;BME280;63998;52.488;13.428;2023-07-24T04:34:17;100028.66;;;19.29;69.43
75420;BME280;63998;52.488;13.428;2023-07-24T04:36:42;100032.09;;;19.31;69.65
75420;BME280;63998;52.488;13.428;2023-07-24T04:39:08;100026.69;;;19.34;69.23
75420;BME280;63998;52.488;13.428;2023-07-24T04:41:33;100026.56;;;19.37;69.46
75420;BME280;63998;52.488;13.428;2023-07-24T04:43:58;100028.97;;;19.42;69.31
75420;BME280;63998;52.488;13.428;2023-07-24T04:46:23;100027.13;;;19.44;68.89
75420;BME280;63998;52.488;13.428;2023-07-24T04:48:49;100019.28;;;19.42;69.30
75420;BME280;63998;52.488;13.428;2023-07-24T04:51:14;100020.88;;;19.46;69.00
75420;BME280;63998;52.488;13.428;2023-07-24T04:53:39;100020.78;;;19.49;68.83
75420;BME280;63998;52.488;13.428;2023-07-24T04:56:05;100027.44;;;19.56;68.86
75420;BME280;63998;52.488;13.428;2023-07-24T04:58:30;100016.84;;;19.58;68.84
75420;BME280;63998;52.488;13.428;2023-07-24T05:00:55;100013.78;;;19.67;68.54
75420;BME280;63998;52.488;13.428;2023-07-24T05:03:20;100021.59;;;19.68;68.37
75420;BME280;63998;52.488;13.428;2023-07-24T05:05:54;100018.78;;;19.73;68.20
75420;BME280;63998;52.488;13.428;2023-07-24T05:08:20;100011.34;;;19.81;67.96
75420;BME280;63998;52.488;13.428;2023-07-24T05:10:46;100011.75;;;19.91;67.47
75420;BME280;63998;52.488;13.428;2023-07-24T05:13:11;100007.91;;;19.98;67.23
75420;BME280;63998;52.488;13.428;2023-07-24T05:15:36;100011.31;;;20.00;67.18
75420;BME280;63998;52.488;13.428;2023-07-24T05:18:02;100009.16;;;20.08;66.96
75420;BME280;63998;52.488;13.428;2023-07-24T05:20:27;100009.03;;;20.11;66.75
75420;BME280;63998;52.488;13.428;2023-07-24T05:22:52;99998.00;;;20.20;66.61
75420;BME280;63998;52.488;13.428;2023-07-24T05:25:17;100005.38;;;20.31;66.18
75420;BME280;63998;52.488;13.428;2023-07-24T05:27:43;99992.53;;;20.42;65.93
75420;BME280;63998;52.488;13.428;2023-07-24T05:30:08;99999.16;;;20.51;65.72
75420;BME280;63998;52.488;13.428;2023-07-24T05:32:33;99998.22;;;20.52;65.68
75420;BME280;63998;52.488;13.428;2023-07-24T05:34:59;100002.47;;;20.54;65.21
75420;BME280;63998;52.488;13.428;2023-07-24T05:37:24;99992.78;;;20.55;65.00
75420;BME280;63998;52.488;13.428;2023-07-24T05:39:49;99994.47;;;20.56;64.91
75420;BME280;63998;52.488;13.428;2023-07-24T05:42:15;99992.78;;;20.55;64.71
75420;BME280;63998;52.488;13.428;2023-07-24T05:44:40;99986.88;;;20.67;64.55
75420;BME280;63998;52.488;13.428;2023-07-24T05:47:05;100004.91;;;20.76;64.36
75420;BME280;63998;52.488;13.428;2023-07-24T05:49:30;99982.16;;;20.73;64.29
75420;BME280;63998;52.488;13.428;2023-07-24T05:51:56;99988.03;;;20.78;63.83
75420;BME280;63998;52.488;13.428;2023-07-24T05:54:22;99985.78;;;20.88;63.75
75420;BME280;63998;52.488;13.428;2023-07-24T05:56:47;99978.78;;;20.87;63.24
75420;BME280;63998;52.488;13.428;2023-07-24T05:59:13;99975.22;;;20.88;63.13
75420;BME280;63998;52.488;13.428;2023-07-24T06:01:38;99968.25;;;21.03;62.95
75420;BME280;63998;52.488;13.428;2023-07-24T06:04:03;99969.00;;;21.22;62.37
75420;BME280;63998;52.488;13.428;2023-07-24T06:06:30;99966.09;;;21.27;61.62
75420;BME280;63998;52.488;13.428;2023-07-24T06:08:56;99971.06;;;21.33;61.44
75420;BME280;63998;52.488;13.428;2023-07-24T06:11:21;99955.28;;;21.31;60.95
75420;BME280;63998;52.488;13.428;2023-07-24T06:13:48;99956.41;;;21.43;60.81
75420;BME280;63998;52.488;13.428;2023-07-24T06:16:13;99956.56;;;21.40;60.49
75420;BME280;63998;52.488;13.428;2023-07-24T06:18:39;99952.72;;;21.30;60.71
75420;BME280;63998;52.488;13.428;2023-07-24T06:21:04;99952.75;;;21.45;60.34
75420;BME280;63998;52.488;13.428;2023-07-24T06:23:29;99947.78;;;21.55;60.50
75420;BME280;63998;52.488;13.428;2023-07-24T06:25:55;99947.88;;;21.69;60.10
75420;BME280;63998;52.488;13.428;2023-07-24T06:28:20;99957.50;;;21.70;59.61
75420;BME280;63998;52.488;13.428;2023-07-24T06:30:46;99942.44;;;21.72;58.80
75420;BME280;63998;52.488;13.428;2023-07-24T06:33:11;99940.34;;;21.77;58.73
75420;BME280;63998;52.488;13.428;2023-07-24T06:35:37;99936.06;;;21.91;58.37
75420;BME280;63998;52.488;13.428;2023-07-24T06:38:02;99937.94;;;21.88;57.91
75420;BME280;63998;52.488;13.428;2023-07-24T06:40:28;99945.56;;;21.79;57.87
75420;BME280;63998;52.488;13.428;2023-07-24T06:42:53;99942.56;;;21.85;57.41
75420;BME280;63998;52.488;13.428;2023-07-24T06:45:19;99939.09;;;21.84;57.71
75420;BME280;63998;52.488;13.428;2023-07-24T06:47:44;99934.19;;;21.93;57.07
75420;BME280;63998;52.488;13.428;2023-07-24T06:50:09;99926.69;;;22.01;57.25
75420;BME280;63998;52.488;13.428;2023-07-24T06:52:35;99928.75;;;22.11;56.97
75420;BME280;63998;52.488;13.428;2023-07-24T06:55:00;99921.09;;;22.21;56.73
75420;BME280;63998;52.488;13.428;2023-07-24T06:57:25;99920.75;;;22.41;56.63
75420;BME280;63998;52.488;13.428;2023-07-24T06:59:51;99916.44;;;22.54;55.76
75420;BME280;63998;52.488;13.428;2023-07-24T07:02:16;99920.41;;;22.47;56.20
75420;BME280;63998;52.488;13.428;2023-07-24T07:04:41;99920.59;;;22.44;55.45
75420;BME280;63998;52.488;13.428;2023-07-24T07:07:07;99916.25;;;22.57;55.40
75420;BME280;63998;52.488;13.428;2023-07-24T07:09:32;99903.56;;;22.63;54.79
75420;BME280;63998;52.488;13.428;2023-07-24T07:11:57;99894.31;;;22.70;54.45
75420;BME280;63998;52.488;13.428;2023-07-24T07:14:23;99891.75;;;22.68;54.62
75420;BME280;63998;52.488;13.428;2023-07-24T07:16:48;99892.56;;;22.84;54.79
75420;BME280;63998;52.488;13.428;2023-07-24T07:19:13;99902.66;;;22.78;54.14
75420;BME280;63998;52.488;13.428;2023-07-24T07:21:39;99914.97;;;22.79;53.81
75420;BME280;63998;52.488;13.428;2023-07-24T07:24:04;99891.91;;;22.81;53.59
75420;BME280;63998;52.488;13.428;2023-07-24T07:26:30;99895.25;;;22.69;53.46
75420;BME280;63998;52.488;13.428;2023-07-24T07:28:55;99882.97;;;22.68;53.41
75420;BME280;63998;52.488;13.428;2023-07-24T07:31:21;99869.66;;;22.83;52.95
75420;BME280;63998;52.488;13.428;2023-07-24T07:33:46;99898.31;;;23.05;52.36
75420;BME280;63998;52.488;13.428;2023-07-24T07:36:12;99887.19;;;22.86;52.05
75420;BME280;63998;52.488;13.428;2023-07-24T07:38:37;99894.53;;;22.95;52.18
75420;BME280;63998;52.488;13.428;2023-07-24T07:41:05;99896.06;;;22.99;51.88
75420;BME280;63998;52.488;13.428;2023-07-24T07:43:31;99900.59;;;23.11;51.96
75420;BME280;63998;52.488;13.428;2023-07-24T07:45:56;99924.63;;;23.08;51.42
75420;BME280;63998;52.488;13.428;2023-07-24T07:48:22;99942.97;;;23.11;51.39
75420;BME280;63998;52.488;13.428;2023-07-24T07:50:51;99907.09;;;23.20;51.30
75420;BME280;63998;52.488;13.428;2023-07-24T07:53:17;99917.97;;;23.15;51.39
75420;BME280;63998;52.488;13.428;2023-07-24T07:55:42;99916.72;;;23.35;51.17
75420;BME280;63998;52.488;13.428;2023-07-24T07:58:07;99930.41;;;23.42;51.30
75420;BME280;63998;52.488;13.428;2023-07-24T08:00:32;99917.16;;;23.42;50.80
75420;BME280;63998;52.488;13.428;2023-07-24T08:02:58;99917.56;;;23.36;50.14
75420;BME280;63998;52.488;13.428;2023-07-24T08:05:23;99907.13;;;23.47;50.29
75420;BME280;63998;52.488;13.428;2023-07-24T08:07:48;99911.50;;;23.34;50.30
75420;BME280;63998;52.488;13.428;2023-07-24T08:10:14;99909.63;;;23.36;51.14
75420;BME280;63998;52.488;13.428;2023-07-24T08:12:41;99915.66;;;23.52;50.94
75420;BME280;63998;52.488;13.428;2023-07-24T08:15:06;99896.16;;;23.53;49.91
75420;BME280;63998;52.488;13.428;2023-07-24T08:17:32;99890.41;;;23.73;50.09
75420;BME280;63998;52.488;13.428;2023-07-24T08:19:57;99896.00;;;23.69;48.82
75420;BME280;63998;52.488;13.428;2023-07-24T08:22:23;99885.50;;;23.67;49.14
75420;BME280;63998;52.488;13.428;2023-07-24T08:24:48;99883.31;;;23.74;48.94
75420;BME280;63998;52.488;13.428;2023-07-24T08:27:15;99869.31;;;23.84;48.91
75420;BME280;63998;52.488;13.428;2023-07-24T08:29:41;99886.72;;;23.88;49.04
75420;BME280;63998;52.488;13.428;2023-07-24T08:32:06;99873.38;;;24.03;48.91
75420;BME280;63998;52.488;13.428;2023-07-24T08:34:32;99865.53;;;24.14;48.37
75420;BME280;63998;52.488;13.428;2023-07-24T08:36:57;99868.75;;;24.19;48.22
75420;BME280;63998;52.488;13.428;2023-07-24T08:39:22;99867.72;;;24.34;48.10
75420;BME280;63998;52.488;13.428;2023-07-24T08:41:48;99849.34;;;24.31;47.74
75420;BME280;63998;52.488;13.428;2023-07-24T08:44:13;99847.09;;;24.38;47.79
75420;BME280;63998;52.488;13.428;2023-07-24T08:46:39;99848.19;;;24.35;47.96
75420;BME280;63998;52.488;13.428;2023-07-24T08:49:11;99844.34;;;24.39;47.90
75420;BME280;63998;52.488;13.428;2023-07-24T08:51:37;99838.19;;;24.51;48.04
75420;BME280;63998;52.488;13.428;2023-07-24T08:54:03;99843.81;;;24.59;48.04
75420;BME280;63998;52.488;13.428;2023-07-24T08:56:29;99833.84;;;24.50;47.95
75420;BME280;63998;52.488;13.428;2023-07-24T08:58:55;99840.19;;;24.60;47.89
75420;BME280;63998;52.488;13.428;2023-07-24T09:01:20;99828.41;;;24.64;47.74
75420;BME280;63998;52.488;13.428;2023-07-24T09:03:45;99830.09;;;24.78;47.04
75420;BME280;63998;52.488;13.428;2023-07-24T09:06:11;99834.13;;;24.84;47.19
75420;BME280;63998;52.488;13.428;2023-07-24T09:08:37;99839.19;;;24.87;46.91
75420;BME280;63998;52.488;13.428;2023-07-24T09:11:04;99824.75;;;24.91;47.04
75420;BME280;63998;52.488;13.428;2023-07-24T09:13:30;99823.22;;;25.12;46.97
75420;BME280;63998;52.488;13.428;2023-07-24T09:15:56;99814.50;;;25.10;45.91
75420;BME280;63998;52.488;13.428;2023-07-24T09:18:22;99818.13;;;25.09;46.22
75420;BME280;63998;52.488;13.428;2023-07-24T09:20:48;99813.69;;;25.10;46.59
75420;BME280;63998;52.488;13.428;2023-07-24T09:23:14;99816.88;;;25.02;46.59
75420;BME280;63998;52.488;13.428;2023-07-24T09:25:41;99805.63;;;25.22;46.75
75420;BME280;63998;52.488;13.428;2023-07-24T09:28:11;99817.47;;;25.42;45.69
75420;BME280;63998;52.488;13.428;2023-07-24T09:30:38;99798.78;;;25.55;45.07
75420;BME280;63998;52.488;13.428;2023-07-24T09:33:04;99793.78;;;25.74;44.87
75420;BME280;63998;52.488;13.428;2023-07-24T09:35:29;99805.69;;;25.81;44.44
75420;BME280;63998;52.488;13.428;2023-07-24T09:38:10;99812.28;;;25.75;44.26
75420;BME280;63998;52.488;13.428;2023-07-24T09:40:43;99813.03;;;25.54;44.83
75420;BME280;63998;52.488;13.428;2023-07-24T09:45:41;99834.09;;;25.57;44.87
75420;BME280;63998;52.488;13.428;2023-07-24T09:48:07;99828.16;;;25.53;44.79
75420;BME280;63998;52.488;13.428;2023-07-24T09:50:36;99821.53;;;25.59;45.05
75420;BME280;63998;52.488;13.428;2023-07-24T09:53:02;99813.03;;;25.77;44.82
75420;BME280;63998;52.488;13.428;2023-07-24T09:55:30;99809.75;;;25.74;44.30
75420;BME280;63998;52.488;13.428;2023-07-24T09:58:00;99795.47;;;25.75;44.10
75420;BME280;63998;52.488;13.428;2023-07-24T10:00:25;99786.13;;;26.04;42.99
75420;BME280;63998;52.488;13.428;2023-07-24T10:02:52;99803.84;;;26.28;42.74
75420;BME280;63998;52.488;13.428;2023-07-24T10:05:17;99818.94;;;26.16;42.79
75420;BME280;63998;52.488;13.428;2023-07-24T10:07:43;99780.81;;;26.27;42.51
75420;BME280;63998;52.488;13.428;2023-07-24T10:10:09;99778.69;;;26.32;42.68
75420;BME280;63998;52.488;13.428;2023-07-24T10:12:35;99766.06;;;26.34;42.89
75420;BME280;63998;52.488;13.428;2023-07-24T10:15:01;99764.41;;;26.33;42.74
75420;BME280;63998;52.488;13.428;2023-07-24T10:17:37;99750.81;;;26.47;42.29
75420;BME280;63998;52.488;13.428;2023-07-24T10:20:07;99748.00;;;26.71;41.73
75420;BME280;63998;52.488;13.428;2023-07-24T10:22:33;99743.09;;;26.55;41.69
75420;BME280;63998;52.488;13.428;2023-07-24T10:24:58;99747.53;;;26.77;41.44
75420;BME280;63998;52.488;13.428;2023-07-24T10:27:24;99739.19;;;26.59;41.11
75420;BME280;63998;52.488;13.428;2023-07-24T10:30:03;99741.59;;;26.73;41.07
75420;BME280;63998;52.488;13.428;2023-07-24T10:32:29;99713.25;;;26.72;41.04
75420;BME280;63998;52.488;13.428;2023-07-24T10:35:00;99734.41;;;26.96;40.35
75420;BME280;63998;52.488;13.428;2023-07-24T10:37:33;99721.81;;;26.87;38.88
75420;BME280;63998;52.488;13.428;2023-07-24T10:39:59;99725.59;;;26.73;39.07
75420;BME280;63998;52.488;13.428;2023-07-24T10:42:24;99710.13;;;26.67;39.21
75420;BME280;63998;52.488;13.428;2023-07-24T10:44:50;99706.78;;;26.86;39.50
75420;BME280;63998;52.488;13.428;2023-07-24T10:47:15;99693.50;;;27.18;39.36
75420;BME280;63998;52.488;13.428;2023-07-24T10:49:48;99683.81;;;27.38;38.35
75420;BME280;63998;52.488;13.428;2023-07-24T10:52:14;99687.16;;;27.30;37.87
75420;BME280;63998;52.488;13.428;2023-07-24T10:54:39;99693.66;;;27.37;37.80
75420;BME280;63998;52.488;13.428;2023-07-24T10:57:05;99691.16;;;27.45;38.29
75420;BME280;63998;52.488;13.428;2023-07-24T10:59:39;99674.78;;;27.71;36.93
75420;BME280;63998;52.488;13.428;2023-07-24T11:02:07;99670.84;;;27.65;36.39
75420;BME280;63998;52.488;13.428;2023-07-24T11:04:32;99661.28;;;27.63;36.46
75420;BME280;63998;52.488;13.428;2023-07-24T11:07:00;99674.28;;;27.77;35.95
75420;BME280;63998;52.488;13.428;2023-07-24T11:09:35;99657.44;;;27.86;36.10
75420;BME280;63998;52.488;13.428;2023-07-24T11:12:12;99650.41;;;27.85;35.46
75420;BME280;63998;52.488;13.428;2023-07-24T11:14:52;99649.91;;;27.91;36.11
75420;BME280;63998;52.488;13.428;2023-07-24T11:17:20;99650.88;;;27.90;36.18
75420;BME280;63998;52.488;13.428;2023-07-24T11:19:46;99636.09;;;27.86;35.98
75420;BME280;63998;52.488;13.428;2023-07-24T11:22:12;99634.16;;;27.46;37.04
75420;BME280;63998;52.488;13.428;2023-07-24T11:24:46;99623.72;;;27.85;36.69
75420;BME280;63998;52.488;13.428;2023-07-24T11:27:16;99643.47;;;27.73;36.97
75420;BME280;63998;52.488;13.428;2023-07-24T11:29:50;99626.00;;;27.38;36.91
75420;BME280;63998;52.488;13.428;2023-07-24T11:32:19;99612.91;;;27.35;37.39
75420;BME280;63998;52.488;13.428;2023-07-24T11:34:47;99608.84;;;27.31;36.94
75420;BME280;63998;52.488;13.428;2023-07-24T11:37:13;99605.44;;;27.29;37.74
75420;BME280;63998;52.488;13.428;2023-07-24T11:39:39;99603.03;;;27.26;37.81
75420;BME280;63998;52.488;13.428;2023-07-24T11:42:04;99606.41;;;27.28;37.16
75420;BME280;63998;52.488;13.428;2023-07-24T11:44:30;99604.91;;;27.35;37.14
75420;BME280;63998;52.488;13.428;2023-07-24T11:47:05;99591.22;;;27.49;36.88
75420;BME280;63998;52.488;13.428;2023-07-24T11:49:31;99584.28;;;27.58;36.72
75420;BME280;63998;52.488;13.428;2023-07-24T11:52:05;99574.75;;;27.56;36.75
75420;BME280;63998;52.488;13.428;2023-07-24T11:54:33;99582.78;;;27.44;36.63
75420;BME280;63998;52.488;13.428;2023-07-24T11:56:58;99582.06;;;27.42;36.46
75420;BME280;63998;52.488;13.428;2023-07-24T11:59:24;99600.38;;;27.26;36.86
75420;BME280;63998;52.488;13.428;2023-07-24T12:01:49;99590.94;;;27.22;36.50
75420;BME280;63998;52.488;13.428;2023-07-24T12:04:15;99607.13;;;27.09;37.11
75420;BME280;63998;52.488;13.428;2023-07-24T12:06:41;99618.91;;;27.07;37.12
75420;BME280;63998;52.488;13.428;2023-07-24T12:09:07;99597.84;;;27.04;37.40
75420;BME280;63998;52.488;13.428;2023-07-24T12:11:34;99592.38;;;27.05;37.08
75420;BME280;63998;52.488;13.428;2023-07-24T12:14:04;99605.97;;;27.02;37.39
75420;BME280;63998;52.488;13.428;2023-07-24T12:16:29;99601.00;;;26.98;37.52
75420;BME280;63998;52.488;13.428;2023-07-24T12:18:56;99586.94;;;26.96;37.05
75420;BME280;63998;52.488;13.428;2023-07-24T12:21:21;99598.06;;;26.80;37.34
75420;BME280;63998;52.488;13.428;2023-07-24T12:23:46;99593.56;;;26.80;37.58
75420;BME280;63998;52.488;13.428;2023-07-24T12:26:11;99626.88;;;26.75;37.52
75420;BME280;63998;52.488;13.428;2023-07-24T12:28:37;99622.47;;;26.53;40.16
75420;BME280;63998;52.488;13.428;2023-07-24T12:31:02;99633.19;;;26.31;41.30
75420;BME280;63998;52.488;13.428;2023-07-24T12:33:28;99636.56;;;25.99;42.97
75420;BME280;63998;52.488;13.428;2023-07-24T12:35:53;99644.56;;;25.66;44.63
75420;BME280;63998;52.488;13.428;2023-07-24T12:38:19;99650.28;;;25.49;45.51
75420;BME280;63998;52.488;13.428;2023-07-24T12:40:44;99654.63;;;25.38;45.75
75420;BME280;63998;52.488;13.428;2023-07-24T12:43:10;99652.09;;;25.02;47.32
75420;BME280;63998;52.488;13.428;2023-07-24T12:45:35;99639.81;;;25.12;47.48